Time;durP1;ratioP1;P1;durP2;ratioP2;P2;SDS_P1;SDS_P2;PMS_P1;PMS_P2;Temp;Humidity;BMP_temperature;BMP_pressure;BME280_temperature;BME280_humidity;BME280_pressure;Samples;Min_cycle;Max_cycle;Signal;HPM_P1;HPM_P2
2023/06/23 00:02:18;;;;;;;3.30;3.00;;;;;;;;;;5036632;28;20206;-76
2023/06/23 00:04:44;;;;;;;3.40;3.10;;;;;;;;;;5039636;28;20192;-76
2023/06/23 00:07:11;;;;;;;3.43;3.13;;;;;;;;;;5039605;28;20215;-76
2023/06/23 00:09:37;;;;;;;3.43;3.13;;;;;;;;;;5038384;28;20284;-76
2023/06/23 00:12:07;;;;;;;3.40;3.10;;;;;;;;;;5038105;28;20194;-76
2023/06/23 00:14:34;;;;;;;3.53;3.20;;;;;;;;;;5038931;28;20670;-76
2023/06/23 00:17:00;;;;;;;3.07;2.77;;;;;;;;;;5037689;28;20578;-76
2023/06/23 00:19:27;;;;;;;3.27;2.97;;;;;;;;;;5037483;28;20192;-77
2023/06/23 00:21:53;;;;;;;3.10;2.80;;;;;;;;;;5038481;28;20211;-77
2023/06/23 00:24:19;;;;;;;2.80;2.60;;;;;;;;;;5042220;28;20657;-76
2023/06/23 00:26:45;;;;;;;3.17;2.87;;;;;;;;;;5038524;28;20197;-76
2023/06/23 00:29:11;;;;;;;3.10;2.80;;;;;;;;;;5038499;28;20175;-76
2023/06/23 00:31:37;;;;;;;2.60;2.40;;;;;;;;;;5037987;28;20324;-76
2023/06/23 00:34:05;;;;;;;3.23;2.80;;;;;;;;;;5034714;28;20271;-76
2023/06/23 00:36:31;;;;;;;2.77;2.50;;;;;;;;;;5037958;28;20186;-76
2023/06/23 00:39:02;;;;;;;2.90;2.60;;;;;;;;;;5037741;28;20279;-76
2023/06/23 00:41:28;;;;;;;3.10;2.80;;;;;;;;;;5039775;28;20201;-76
2023/06/23 00:43:59;;;;;;;2.67;2.47;;;;;;;;;;5038293;28;20194;-76
2023/06/23 00:46:26;;;;;;;4.20;2.90;;;;;;;;;;5019477;28;20273;-76
2023/06/23 00:48:52;;;;;;;3.10;2.80;;;;;;;;;;5038297;28;20233;-76
2023/06/23 00:51:22;;;;;;;3.33;3.03;;;;;;;;;;5036242;28;20198;-76
2023/06/23 00:53:48;;;;;;;3.50;3.20;;;;;;;;;;5032934;28;20198;-77
2023/06/23 00:56:15;;;;;;;3.83;3.30;;;;;;;;;;5038263;28;20189;-76
2023/06/23 00:58:42;;;;;;;4.20;3.70;;;;;;;;;;5050528;28;20190;-76
2023/06/23 01:01:08;;;;;;;4.33;3.93;;;;;;;;;;5046839;28;20235;-76
2023/06/23 01:03:36;;;;;;;5.03;4.53;;;;;;;;;;5046839;28;20193;-76
2023/06/23 01:06:08;;;;;;;4.87;4.40;;;;;;;;;;5038604;28;20241;-76
2023/06/23 01:08:38;;;;;;;4.80;4.30;;;;;;;;;;5038833;28;20550;-76
2023/06/23 01:11:22;;;;;;;5.23;4.73;;;;;;;;;;5044722;28;20182;-76
2023/06/23 01:13:54;;;;;;;5.80;5.23;;;;;;;;;;5033132;28;20197;-76
2023/06/23 01:16:32;;;;;;;5.13;4.63;;;;;;;;;;5034326;28;20209;-76
2023/06/23 01:19:10;;;;;;;5.13;4.63;;;;;;;;;;5037770;28;20235;-76
2023/06/23 01:21:55;;;;;;;6.33;5.13;;;;;;;;;;5036702;28;20226;-76
2023/06/23 01:24:48;;;;;;;5.37;4.87;;;;;;;;;;5038424;28;20199;-76
2023/06/23 01:27:34;;;;;;;7.17;4.83;;;;;;;;;;5038767;28;20245;-76
2023/06/23 01:30:04;;;;;;;5.07;4.57;;;;;;;;;;5040254;28;20609;-76
2023/06/23 01:32:33;;;;;;;5.50;4.77;;;;;;;;;;5036911;28;20230;-76
2023/06/23 01:35:04;;;;;;;5.20;4.70;;;;;;;;;;5038403;28;20189;-76
2023/06/23 01:37:35;;;;;;;5.90;5.30;;;;;;;;;;5038051;28;20178;-76
2023/06/23 01:40:15;;;;;;;5.60;5.10;;;;;;;;;;5038765;28;20569;-77
2023/06/23 01:42:50;;;;;;;5.50;5.00;;;;;;;;;;5034656;28;20252;-76
2023/06/23 01:45:17;;;;;;;5.37;4.87;;;;;;;;;;5039060;28;20593;-76
2023/06/23 01:47:48;;;;;;;5.10;4.60;;;;;;;;;;5037905;28;20178;-76
2023/06/23 01:50:16;;;;;;;5.60;5.03;;;;;;;;;;5040225;28;20673;-76
2023/06/23 01:52:43;;;;;;;5.43;4.93;;;;;;;;;;5038606;28;20205;-76
2023/06/23 01:55:10;;;;;;;5.80;5.30;;;;;;;;;;5022567;28;20197;-76
2023/06/23 01:57:38;;;;;;;6.03;5.43;;;;;;;;;;5037072;28;20294;-76
2023/06/23 02:00:11;;;;;;;6.57;5.33;;;;;;;;;;5034101;28;20214;-76
2023/06/23 02:02:44;;;;;;;6.10;5.50;;;;;;;;;;5037617;28;20218;-76
2023/06/23 02:05:11;;;;;;;6.47;5.40;;;;;;;;;;5019230;28;20178;-76
2023/06/23 02:07:39;;;;;;;5.50;5.00;;;;;;;;;;5018940;28;20181;-76
2023/06/23 02:10:06;;;;;;;5.70;5.13;;;;;;;;;;5037289;28;20198;-76
2023/06/23 02:12:33;;;;;;;5.43;4.93;;;;;;;;;;5034468;28;20838;-76
2023/06/23 02:15:00;;;;;;;6.03;5.43;;;;;;;;;;5012265;28;20182;-76
2023/06/23 02:17:26;;;;;;;6.07;5.00;;;;;;;;;;5029299;28;20217;-76
2023/06/23 02:19:53;;;;;;;5.20;4.70;;;;;;;;;;5018448;28;20214;-76
2023/06/23 02:22:22;;;;;;;5.43;4.93;;;;;;;;;;5028840;28;20298;-76
2023/06/23 02:24:49;;;;;;;5.47;4.57;;;;;;;;;;5029780;28;20182;-76
2023/06/23 02:27:17;;;;;;;6.13;5.53;;;;;;;;;;5028350;28;20772;-76
2023/06/23 02:29:44;;;;;;;6.87;5.33;;;;;;;;;;5029392;28;20511;-76
2023/06/23 02:32:16;;;;;;;7.73;5.33;;;;;;;;;;5030161;28;20273;-76
2023/06/23 02:34:46;;;;;;;6.53;5.33;;;;;;;;;;5029918;28;20174;-76
2023/06/23 02:37:16;;;;;;;5.63;5.13;;;;;;;;;;5014012;28;20321;-76
2023/06/23 02:39:46;;;;;;;7.00;5.03;;;;;;;;;;5032797;28;20235;-76
2023/06/23 02:42:13;;;;;;;5.67;5.17;;;;;;;;;;5033736;28;20230;-76
2023/06/23 02:44:42;;;;;;;5.50;5.00;;;;;;;;;;5051214;28;20219;-76
2023/06/23 02:47:11;;;;;;;5.23;4.73;;;;;;;;;;5052429;28;20197;-76
2023/06/23 02:49:38;;;;;;;5.50;5.00;;;;;;;;;;5052820;28;20210;-76
2023/06/23 02:52:06;;;;;;;5.80;5.30;;;;;;;;;;5034868;28;20693;-76
2023/06/23 02:54:34;;;;;;;5.47;4.97;;;;;;;;;;5035442;28;20189;-76
2023/06/23 02:57:01;;;;;;;5.73;5.20;;;;;;;;;;5051594;28;20181;-76
2023/06/23 02:59:27;;;;;;;5.50;5.00;;;;;;;;;;5039770;28;20289;-76
2023/06/23 03:01:55;;;;;;;5.40;4.90;;;;;;;;;;5033279;28;20210;-76
2023/06/23 03:04:22;;;;;;;5.60;5.10;;;;;;;;;;5050996;28;20232;-76
2023/06/23 03:06:48;;;;;;;5.40;4.90;;;;;;;;;;5048158;28;20166;-76
2023/06/23 03:09:14;;;;;;;6.47;5.87;;;;;;;;;;5040687;28;20244;-76
2023/06/23 03:11:40;;;;;;;5.80;5.20;;;;;;;;;;5039530;28;20208;-76
2023/06/23 03:14:07;;;;;;;6.50;5.30;;;;;;;;;;5032189;28;20232;-76
2023/06/23 03:16:46;;;;;;;5.87;5.37;;;;;;;;;;5026115;28;20273;-76
2023/06/23 03:19:12;;;;;;;6.73;5.70;;;;;;;;;;5036057;28;20198;-76
2023/06/23 03:21:39;;;;;;;6.20;5.70;;;;;;;;;;5045826;28;20211;-76
2023/06/23 03:24:09;;;;;;;5.87;5.27;;;;;;;;;;5036831;28;20199;-76
2023/06/23 03:26:39;;;;;;;6.10;5.00;;;;;;;;;;5037062;28;20189;-76
2023/06/23 03:29:07;;;;;;;5.47;4.97;;;;;;;;;;5039258;28;20252;-76
2023/06/23 03:31:36;;;;;;;7.13;6.00;;;;;;;;;;5037703;28;20555;-76
2023/06/23 03:34:02;;;;;;;6.27;5.67;;;;;;;;;;5044535;28;20217;-76
2023/06/23 03:36:29;;;;;;;7.30;6.23;;;;;;;;;;5014719;28;20265;-76
2023/06/23 03:39:01;;;;;;;6.10;5.50;;;;;;;;;;5038870;28;20179;-76
2023/06/23 03:41:28;;;;;;;6.93;6.23;;;;;;;;;;5038300;28;20214;-76
2023/06/23 03:43:57;;;;;;;7.80;7.00;;;;;;;;;;5039690;28;20589;-76
2023/06/23 03:46:25;;;;;;;6.73;6.13;;;;;;;;;;5039444;28;20225;-76
2023/06/23 03:48:54;;;;;;;7.57;6.87;;;;;;;;;;5037082;28;20181;-76
2023/06/23 03:51:22;;;;;;;7.43;6.73;;;;;;;;;;5036143;28;20174;-76
2023/06/23 03:53:49;;;;;;;7.10;6.50;;;;;;;;;;5036890;28;20203;-76
2023/06/23 03:56:16;;;;;;;7.83;7.03;;;;;;;;;;5038825;28;20193;-76
2023/06/23 03:58:44;;;;;;;7.00;6.30;;;;;;;;;;5039162;28;20190;-76
2023/06/23 04:01:10;;;;;;;8.57;7.07;;;;;;;;;;5036616;28;20253;-76
2023/06/23 04:03:38;;;;;;;8.80;7.80;;;;;;;;;;5035604;28;20213;-76
2023/06/23 04:06:06;;;;;;;7.50;6.80;;;;;;;;;;5033695;28;20192;-76
2023/06/23 04:08:32;;;;;;;7.77;6.90;;;;;;;;;;5040291;28;20175;-76
2023/06/23 04:10:59;;;;;;;7.37;6.70;;;;;;;;;;5036898;28;20194;-76
2023/06/23 04:13:29;;;;;;;9.00;8.10;;;;;;;;;;5036248;28;20209;-76
2023/06/23 04:15:57;;;;;;;9.13;8.23;;;;;;;;;;5036604;28;20240;-76
2023/06/23 04:18:25;;;;;;;8.93;8.03;;;;;;;;;;5036728;28;20649;-76
2023/06/23 04:20:52;;;;;;;8.10;7.40;;;;;;;;;;5037532;28;20183;-76
2023/06/23 04:23:20;;;;;;;8.20;7.40;;;;;;;;;;5042651;28;20194;-76
2023/06/23 04:25:48;;;;;;;9.63;7.80;;;;;;;;;;5039158;28;20219;-76
2023/06/23 04:28:16;;;;;;;12.57;8.23;;;;;;;;;;5047334;28;20185;-76
2023/06/23 04:30:43;;;;;;;9.23;8.33;;;;;;;;;;5039657;28;20205;-76
2023/06/23 04:33:09;;;;;;;7.97;7.17;;;;;;;;;;5036229;28;20190;-76
2023/06/23 04:35:36;;;;;;;9.33;8.00;;;;;;;;;;5036016;28;20272;-76
2023/06/23 04:38:04;;;;;;;8.10;7.40;;;;;;;;;;5040717;28;20179;-76
2023/06/23 04:40:33;;;;;;;8.60;7.20;;;;;;;;;;5044473;28;20173;-76
2023/06/23 04:43:09;;;;;;;7.53;6.83;;;;;;;;;;5033855;28;20241;-76
2023/06/23 04:45:38;;;;;;;9.03;8.07;;;;;;;;;;5036448;28;20638;-76
2023/06/23 04:48:07;;;;;;;7.70;7.00;;;;;;;;;;5036336;28;20178;-76
2023/06/23 04:50:34;;;;;;;8.20;7.40;;;;;;;;;;5038016;28;20201;-76
2023/06/23 04:53:13;;;;;;;9.00;7.57;;;;;;;;;;5021264;28;21068;-76
2023/06/23 04:55:40;;;;;;;7.53;6.83;;;;;;;;;;5038167;28;20662;-76
2023/06/23 04:58:07;;;;;;;9.70;8.70;;;;;;;;;;5036749;28;20272;-76
2023/06/23 05:00:33;;;;;;;8.90;7.97;;;;;;;;;;5041036;28;20245;-76
2023/06/23 05:03:00;;;;;;;9.80;7.70;;;;;;;;;;5038316;28;20895;-76
2023/06/23 05:05:30;;;;;;;8.50;7.60;;;;;;;;;;5043563;28;20181;-76
2023/06/23 05:07:57;;;;;;;8.47;7.23;;;;;;;;;;5034631;28;20174;-76
2023/06/23 05:10:24;;;;;;;9.33;7.57;;;;;;;;;;5039766;28;20668;-76
2023/06/23 05:12:51;;;;;;;9.57;8.57;;;;;;;;;;5045993;28;20682;-76
2023/06/23 05:15:18;;;;;;;9.20;8.17;;;;;;;;;;5036265;28;20197;-76
2023/06/23 05:17:45;;;;;;;8.43;7.43;;;;;;;;;;5036946;28;20188;-76
2023/06/23 05:20:11;;;;;;;8.83;7.30;;;;;;;;;;5036603;28;20206;-76
2023/06/23 05:22:39;;;;;;;10.10;8.37;;;;;;;;;;5043694;28;20213;-75
2023/06/23 05:25:06;;;;;;;8.73;7.37;;;;;;;;;;5038496;28;20181;-71
2023/06/23 05:27:34;;;;;;;9.97;7.43;;;;;;;;;;5050579;28;20174;-71
2023/06/23 05:30:01;;;;;;;7.63;6.67;;;;;;;;;;5050906;28;20165;-72
2023/06/23 05:32:29;;;;;;;8.67;7.20;;;;;;;;;;5050578;28;20192;-72
2023/06/23 05:34:58;;;;;;;9.63;7.07;;;;;;;;;;5050739;28;20231;-71
2023/06/23 05:37:27;;;;;;;6.90;6.17;;;;;;;;;;5050218;28;20268;-73
2023/06/23 05:39:53;;;;;;;7.33;6.63;;;;;;;;;;5050777;28;20170;-72
2023/06/23 05:42:19;;;;;;;7.20;6.50;;;;;;;;;;5047338;28;20209;-72
2023/06/23 05:44:46;;;;;;;6.50;5.83;;;;;;;;;;5033203;28;20176;-74
2023/06/23 05:47:15;;;;;;;7.87;5.97;;;;;;;;;;5046225;28;20236;-71
2023/06/23 05:49:43;;;;;;;6.80;6.20;;;;;;;;;;5049392;28;20177;-72
2023/06/23 05:52:12;;;;;;;7.00;6.40;;;;;;;;;;5050503;28;20265;-71
2023/06/23 05:54:39;;;;;;;6.77;5.50;;;;;;;;;;5050485;28;20193;-71
2023/06/23 05:57:07;;;;;;;7.13;6.30;;;;;;;;;;5050022;28;20585;-72
2023/06/23 05:59:42;;;;;;;6.63;5.93;;;;;;;;;;5038027;28;20221;-72
2023/06/23 06:02:15;;;;;;;6.37;5.73;;;;;;;;;;5035259;28;20217;-71
2023/06/23 06:04:48;;;;;;;6.10;5.50;;;;;;;;;;5042155;28;20228;-71
2023/06/23 06:07:15;;;;;;;7.00;5.47;;;;;;;;;;5047603;28;20194;-71
2023/06/23 06:09:42;;;;;;;5.50;5.00;;;;;;;;;;5049346;28;20188;-73
2023/06/23 06:12:08;;;;;;;5.60;5.10;;;;;;;;;;5044609;28;20233;-72
2023/06/23 06:14:35;;;;;;;6.10;5.07;;;;;;;;;;5046604;28;20181;-72
2023/06/23 06:17:01;;;;;;;6.17;5.57;;;;;;;;;;5039446;28;20178;-72
2023/06/23 06:19:28;;;;;;;5.57;5.07;;;;;;;;;;5038600;28;20182;-71
2023/06/23 06:21:56;;;;;;;5.97;5.20;;;;;;;;;;5048118;28;20245;-72
2023/06/23 06:24:23;;;;;;;5.90;5.30;;;;;;;;;;5043190;28;20206;-74
2023/06/23 06:26:50;;;;;;;6.90;4.90;;;;;;;;;;5042814;28;20744;-72
2023/06/23 06:29:18;;;;;;;7.23;5.53;;;;;;;;;;5044001;28;20187;-71
2023/06/23 06:31:45;;;;;;;6.80;5.47;;;;;;;;;;5052081;28;20907;-73
2023/06/23 06:34:14;;;;;;;6.30;5.70;;;;;;;;;;5053766;28;20194;-72
2023/06/23 06:36:41;;;;;;;6.17;5.53;;;;;;;;;;5051212;28;20212;-73
2023/06/23 06:39:08;;;;;;;6.27;5.63;;;;;;;;;;5053864;28;20210;-72
2023/06/23 06:41:35;;;;;;;6.57;5.97;;;;;;;;;;5053824;28;20206;-72
2023/06/23 06:44:03;;;;;;;6.50;5.53;;;;;;;;;;5051800;28;20233;-72
2023/06/23 06:46:29;;;;;;;5.83;5.20;;;;;;;;;;5048418;28;20182;-72
2023/06/23 06:48:56;;;;;;;6.27;5.67;;;;;;;;;;5053342;28;20545;-71
2023/06/23 06:51:23;;;;;;;5.43;4.93;;;;;;;;;;5053728;28;20718;-73
2023/06/23 06:53:50;;;;;;;6.40;5.80;;;;;;;;;;5052446;28;20207;-72
2023/06/23 06:56:16;;;;;;;7.70;5.90;;;;;;;;;;5049524;28;20186;-71
2023/06/23 06:58:42;;;;;;;6.80;5.87;;;;;;;;;;5050530;28;20592;-72
2023/06/23 07:01:09;;;;;;;6.23;5.63;;;;;;;;;;5051617;28;20677;-71
2023/06/23 07:03:37;;;;;;;5.90;5.40;;;;;;;;;;5047982;28;20255;-73
2023/06/23 07:06:03;;;;;;;6.23;5.43;;;;;;;;;;5053364;28;20170;-74
2023/06/23 07:08:29;;;;;;;5.70;5.20;;;;;;;;;;5053060;28;20697;-73
2023/06/23 07:10:55;;;;;;;6.17;5.57;;;;;;;;;;5047746;28;20646;-73
2023/06/23 07:13:21;;;;;;;6.50;5.23;;;;;;;;;;5047919;28;20282;-72
2023/06/23 07:15:48;;;;;;;8.60;5.57;;;;;;;;;;5053279;28;20178;-72
2023/06/23 07:18:14;;;;;;;6.30;5.70;;;;;;;;;;5033904;28;20610;-73
2023/06/23 07:20:40;;;;;;;6.67;5.30;;;;;;;;;;5052094;28;20182;-72
2023/06/23 07:23:06;;;;;;;6.93;5.40;;;;;;;;;;5052001;28;20214;-72
2023/06/23 07:25:32;;;;;;;6.00;5.40;;;;;;;;;;5048918;28;20265;-72
2023/06/23 07:27:58;;;;;;;6.40;5.80;;;;;;;;;;5049035;28;20239;-72
2023/06/23 07:30:25;;;;;;;6.20;5.60;;;;;;;;;;5052966;28;20364;-73
2023/06/23 07:32:51;;;;;;;6.27;5.67;;;;;;;;;;5051865;28;20316;-72
2023/06/23 07:35:18;;;;;;;6.63;6.03;;;;;;;;;;5050179;28;20186;-71
2023/06/23 07:37:44;;;;;;;6.90;5.77;;;;;;;;;;5050631;28;20182;-73
2023/06/23 07:40:11;;;;;;;7.53;6.10;;;;;;;;;;5051785;28;20268;-73
2023/06/23 07:42:37;;;;;;;7.03;5.77;;;;;;;;;;5051532;28;20288;-72
2023/06/23 07:45:03;;;;;;;6.50;4.93;;;;;;;;;;5051728;28;20228;-73
2023/06/23 07:47:30;;;;;;;6.77;5.97;;;;;;;;;;5039313;28;20189;-73
2023/06/23 07:49:57;;;;;;;6.40;5.67;;;;;;;;;;5050093;28;20182;-73
2023/06/23 07:52:23;;;;;;;6.10;5.50;;;;;;;;;;5049246;28;20190;-74
2023/06/23 07:54:50;;;;;;;7.17;5.70;;;;;;;;;;5042936;28;20181;-74
2023/06/23 07:57:16;;;;;;;6.37;5.43;;;;;;;;;;5038927;28;20182;-72
2023/06/23 07:59:42;;;;;;;5.67;5.17;;;;;;;;;;5031331;28;20271;-72
2023/06/23 08:02:08;;;;;;;6.67;5.97;;;;;;;;;;5048739;28;20208;-72
2023/06/23 08:04:34;;;;;;;7.33;5.50;;;;;;;;;;5048053;28;20182;-74
2023/06/23 08:07:00;;;;;;;5.90;5.40;;;;;;;;;;5051847;28;20216;-73
2023/06/23 08:09:26;;;;;;;5.90;5.40;;;;;;;;;;5052244;28;20638;-72
2023/06/23 08:11:53;;;;;;;8.93;5.80;;;;;;;;;;5048757;28;20281;-73
2023/06/23 08:14:19;;;;;;;6.20;5.60;;;;;;;;;;5050804;28;20217;-72
2023/06/23 08:16:45;;;;;;;6.00;5.40;;;;;;;;;;5042133;28;20185;-72
2023/06/23 08:19:11;;;;;;;6.93;5.57;;;;;;;;;;5049577;28;20186;-72
2023/06/23 08:21:37;;;;;;;6.80;6.03;;;;;;;;;;5051884;28;20240;-72
2023/06/23 08:24:04;;;;;;;9.70;5.10;;;;;;;;;;5051719;28;20201;-72
2023/06/23 08:26:30;;;;;;;7.10;5.47;;;;;;;;;;5049132;28;20205;-73
2023/06/23 08:28:56;;;;;;;6.40;5.57;;;;;;;;;;5049023;28;20170;-72
2023/06/23 08:31:22;;;;;;;8.00;5.50;;;;;;;;;;5050792;28;20627;-73
2023/06/23 08:33:48;;;;;;;5.93;5.07;;;;;;;;;;5050069;28;20209;-72
2023/06/23 08:36:14;;;;;;;6.63;5.90;;;;;;;;;;5046558;28;20335;-73
2023/06/23 08:38:40;;;;;;;5.83;5.20;;;;;;;;;;5031227;28;20656;-72
2023/06/23 08:41:07;;;;;;;6.93;5.77;;;;;;;;;;5051524;28;20210;-73
2023/06/23 08:43:35;;;;;;;6.43;5.70;;;;;;;;;;5050065;28;20198;-72
2023/06/23 08:46:04;;;;;;;5.77;5.27;;;;;;;;;;5051758;28;20193;-72
2023/06/23 08:48:31;;;;;;;6.13;5.43;;;;;;;;;;5035530;28;20206;-73
2023/06/23 08:51:01;;;;;;;7.57;5.53;;;;;;;;;;5030739;28;20638;-72
2023/06/23 08:53:28;;;;;;;6.90;5.73;;;;;;;;;;5033611;28;20205;-73
2023/06/23 08:55:54;;;;;;;7.47;5.80;;;;;;;;;;5051942;28;20173;-73
2023/06/23 08:58:21;;;;;;;6.27;5.67;;;;;;;;;;5041711;28;20197;-72
2023/06/23 09:00:51;;;;;;;6.17;5.57;;;;;;;;;;5045066;28;20280;-72
2023/06/23 09:03:20;;;;;;;6.27;5.37;;;;;;;;;;5048371;28;20312;-72
2023/06/23 09:05:46;;;;;;;10.57;5.67;;;;;;;;;;5051461;28;20583;-72
2023/06/23 09:08:13;;;;;;;7.57;5.50;;;;;;;;;;5050603;28;20657;-72
2023/06/23 09:10:40;;;;;;;9.00;5.73;;;;;;;;;;5050562;28;20178;-73
2023/06/23 09:13:08;;;;;;;5.70;5.17;;;;;;;;;;5051111;28;20209;-72
2023/06/23 09:15:35;;;;;;;8.00;5.50;;;;;;;;;;5051270;28;20193;-72
2023/06/23 09:18:04;;;;;;;7.40;5.30;;;;;;;;;;5045446;28;20206;-73
2023/06/23 09:20:30;;;;;;;5.70;5.17;;;;;;;;;;5034525;28;20186;-73
2023/06/23 09:22:58;;;;;;;7.20;5.60;;;;;;;;;;5038752;28;20296;-72
2023/06/23 09:25:37;;;;;;;6.30;5.70;;;;;;;;;;5034056;28;20171;-72
2023/06/23 09:28:04;;;;;;;6.27;5.67;;;;;;;;;;5039856;28;20182;-73
2023/06/23 09:30:36;;;;;;;6.30;5.70;;;;;;;;;;5050431;28;20181;-73
2023/06/23 09:33:05;;;;;;;6.27;5.67;;;;;;;;;;5032330;28;20193;-73
2023/06/23 09:35:31;;;;;;;5.70;5.17;;;;;;;;;;5049906;28;20644;-73
2023/06/23 09:37:58;;;;;;;8.33;5.27;;;;;;;;;;5049103;28;20184;-73
2023/06/23 09:40:25;;;;;;;5.63;5.00;;;;;;;;;;5049610;28;20752;-73
2023/06/23 09:42:56;;;;;;;5.40;4.83;;;;;;;;;;5046898;28;20609;-73
2023/06/23 09:45:23;;;;;;;6.10;4.80;;;;;;;;;;5050358;28;20193;-72
2023/06/23 09:47:49;;;;;;;7.00;4.60;;;;;;;;;;5052524;28;20182;-73
2023/06/23 09:50:16;;;;;;;5.20;4.70;;;;;;;;;;5052864;28;20216;-73
2023/06/23 09:52:42;;;;;;;5.33;4.83;;;;;;;;;;5053758;28;20213;-73
2023/06/23 09:55:09;;;;;;;5.20;4.70;;;;;;;;;;5038514;28;20178;-74
2023/06/23 09:57:35;;;;;;;6.00;5.43;;;;;;;;;;5033283;28;20506;-73
2023/06/23 10:00:03;;;;;;;8.03;5.33;;;;;;;;;;5036903;28;20210;-73
2023/06/23 10:02:33;;;;;;;6.07;5.10;;;;;;;;;;5052962;28;20590;-73
2023/06/23 10:05:05;;;;;;;5.67;5.17;;;;;;;;;;5054470;28;20178;-73
2023/06/23 10:07:32;;;;;;;5.37;4.87;;;;;;;;;;5071030;28;20215;-73
2023/06/23 10:10:00;;;;;;;5.77;5.17;;;;;;;;;;5055995;28;20186;-72
2023/06/23 10:12:28;;;;;;;6.33;5.23;;;;;;;;;;5042012;28;20220;-73
2023/06/23 10:14:55;;;;;;;5.67;5.07;;;;;;;;;;5052209;28;20261;-72
2023/06/23 10:17:21;;;;;;;5.53;5.03;;;;;;;;;;5048594;28;20186;-72
2023/06/23 10:19:48;;;;;;;5.80;5.20;;;;;;;;;;5047384;28;20197;-72
2023/06/23 10:22:15;;;;;;;6.33;5.17;;;;;;;;;;5047020;28;20262;-73
2023/06/23 10:24:52;;;;;;;6.37;5.23;;;;;;;;;;5048826;28;20615;-75
2023/06/23 10:27:22;;;;;;;6.43;4.80;;;;;;;;;;5048124;28;20200;-74
2023/06/23 10:29:52;;;;;;;5.87;4.63;;;;;;;;;;5051885;28;20192;-79
2023/06/23 10:32:22;;;;;;;5.60;4.67;;;;;;;;;;5040893;28;20183;-73
2023/06/23 10:34:49;;;;;;;5.10;4.50;;;;;;;;;;5047438;28;20189;-74
2023/06/23 10:37:16;;;;;;;8.97;4.57;;;;;;;;;;5053630;28;20220;-75
2023/06/23 10:39:44;;;;;;;6.17;5.07;;;;;;;;;;5041463;28;20387;-74
2023/06/23 10:42:14;;;;;;;5.70;5.10;;;;;;;;;;5045213;28;20283;-73
2023/06/23 10:44:41;;;;;;;4.87;4.40;;;;;;;;;;5046259;28;20743;-73
2023/06/23 10:47:08;;;;;;;5.10;4.60;;;;;;;;;;5049044;28;20213;-73
2023/06/23 10:49:35;;;;;;;5.63;4.90;;;;;;;;;;5052527;28;20178;-73
2023/06/23 10:52:02;;;;;;;8.27;5.03;;;;;;;;;;5049899;28;20178;-73
2023/06/23 10:54:29;;;;;;;5.30;4.80;;;;;;;;;;5043910;28;20202;-73
2023/06/23 10:56:55;;;;;;;5.47;4.93;;;;;;;;;;5035152;28;20554;-72
2023/06/23 10:59:25;;;;;;;8.20;4.67;;;;;;;;;;5047329;28;20217;-73
2023/06/23 11:02:01;;;;;;;6.77;4.97;;;;;;;;;;5035290;28;20234;-73
2023/06/23 11:04:31;;;;;;;6.53;5.13;;;;;;;;;;5047716;28;20201;-73
2023/06/23 11:07:17;;;;;;;6.10;4.70;;;;;;;;;;5033751;28;20213;-73
2023/06/23 11:09:52;;;;;;;5.87;4.80;;;;;;;;;;5054094;28;20193;-73
2023/06/23 11:12:36;;;;;;;5.40;4.50;;;;;;;;;;5072348;28;20219;-73
2023/06/23 11:15:08;;;;;;;6.77;4.90;;;;;;;;;;5067749;28;20195;-73
2023/06/23 11:17:45;;;;;;;4.93;4.40;;;;;;;;;;5049288;28;20684;-72
2023/06/23 11:20:12;;;;;;;6.43;4.80;;;;;;;;;;5050575;28;20211;-73
2023/06/23 11:22:40;;;;;;;5.27;4.77;;;;;;;;;;5052687;28;20210;-73
2023/06/23 11:25:07;;;;;;;5.17;4.67;;;;;;;;;;5051313;28;20185;-73
2023/06/23 11:27:34;;;;;;;5.40;4.90;;;;;;;;;;5049004;28;20594;-73
2023/06/23 11:30:19;;;;;;;4.60;4.20;;;;;;;;;;5052362;28;20194;-73
2023/06/23 11:32:45;;;;;;;6.83;4.80;;;;;;;;;;5052534;28;20618;-73
2023/06/23 11:35:11;;;;;;;4.77;4.30;;;;;;;;;;5045679;28;20263;-73
2023/06/23 11:37:39;;;;;;;5.40;4.90;;;;;;;;;;5048322;28;20206;-73
2023/06/23 11:40:08;;;;;;;7.47;4.93;;;;;;;;;;5052613;28;20189;-73
2023/06/23 11:42:35;;;;;;;5.50;5.00;;;;;;;;;;5049034;28;20584;-73
2023/06/23 11:45:01;;;;;;;4.60;4.20;;;;;;;;;;5040036;28;20671;-73
2023/06/23 11:47:28;;;;;;;5.27;4.47;;;;;;;;;;5050747;28;20186;-73
2023/06/23 11:49:54;;;;;;;6.73;4.80;;;;;;;;;;5052083;28;20207;-73
2023/06/23 11:52:21;;;;;;;6.23;4.57;;;;;;;;;;5052640;28;20182;-73
2023/06/23 11:54:53;;;;;;;4.50;4.10;;;;;;;;;;5044403;28;20194;-73
2023/06/23 11:57:20;;;;;;;4.83;4.40;;;;;;;;;;5045960;28;20466;-72
2023/06/23 11:59:46;;;;;;;4.60;4.20;;;;;;;;;;5052346;28;20194;-72
2023/06/23 12:02:12;;;;;;;5.90;4.80;;;;;;;;;;5049629;28;20209;-72
2023/06/23 12:04:39;;;;;;;5.03;4.33;;;;;;;;;;5052095;28;20548;-73
2023/06/23 12:07:05;;;;;;;6.20;4.67;;;;;;;;;;5048248;28;20250;-73
2023/06/23 12:09:32;;;;;;;4.60;4.20;;;;;;;;;;5031828;28;20183;-73
2023/06/23 12:11:59;;;;;;;4.97;4.53;;;;;;;;;;5034717;28;20182;-73
2023/06/23 12:14:33;;;;;;;5.30;4.80;;;;;;;;;;5036217;28;20214;-73
2023/06/23 12:17:17;;;;;;;5.10;4.70;;;;;;;;;;5047726;28;20993;-73
2023/06/23 12:19:43;;;;;;;7.17;4.80;;;;;;;;;;5044430;28;20556;-73
2023/06/23 12:22:14;;;;;;;6.03;4.80;;;;;;;;;;5051371;28;20630;-73
2023/06/23 12:24:40;;;;;;;5.73;4.60;;;;;;;;;;5043646;28;20182;-73
2023/06/23 12:27:07;;;;;;;4.77;4.37;;;;;;;;;;5043688;28;20550;-73
2023/06/23 12:29:33;;;;;;;4.93;4.50;;;;;;;;;;5043755;28;20188;-73
2023/06/23 12:32:02;;;;;;;5.80;4.40;;;;;;;;;;5052049;28;20524;-73
2023/06/23 12:34:42;;;;;;;7.83;5.00;;;;;;;;;;5034580;28;20213;-73
2023/06/23 12:37:12;;;;;;;4.97;4.53;;;;;;;;;;5046956;28;20235;-73
2023/06/23 12:39:39;;;;;;;4.33;4.03;;;;;;;;;;5051536;28;20307;-73
2023/06/23 12:42:07;;;;;;;6.00;5.40;;;;;;;;;;5050341;28;20241;-73
2023/06/23 12:44:35;;;;;;;5.33;4.67;;;;;;;;;;5048971;28;20302;-73
2023/06/23 12:47:01;;;;;;;5.00;3.90;;;;;;;;;;5043919;28;20177;-73
2023/06/23 12:49:31;;;;;;;5.13;4.50;;;;;;;;;;5025849;28;20193;-73
2023/06/23 12:51:58;;;;;;;4.37;3.93;;;;;;;;;;5050310;28;20195;-73
2023/06/23 12:54:26;;;;;;;4.93;4.27;;;;;;;;;;5048867;28;20213;-73
2023/06/23 12:56:56;;;;;;;4.57;4.07;;;;;;;;;;5048916;28;20186;-73
2023/06/23 12:59:22;;;;;;;4.40;4.00;;;;;;;;;;5060327;28;20186;-73
2023/06/23 13:01:50;;;;;;;4.73;3.80;;;;;;;;;;5049792;28;20207;-73
2023/06/23 13:04:16;;;;;;;4.83;4.30;;;;;;;;;;5050903;28;20212;-74
2023/06/23 13:06:42;;;;;;;4.20;3.90;;;;;;;;;;5051180;28;20225;-74
2023/06/23 13:09:08;;;;;;;4.00;3.70;;;;;;;;;;5051600;28;20200;-73
2023/06/23 13:11:35;;;;;;;4.77;3.70;;;;;;;;;;5033587;28;20239;-73
2023/06/23 13:14:01;;;;;;;4.90;4.07;;;;;;;;;;5051205;28;20193;-73
2023/06/23 13:16:27;;;;;;;4.20;3.80;;;;;;;;;;5051141;28;20175;-73
2023/06/23 13:18:53;;;;;;;4.10;3.80;;;;;;;;;;5050585;28;20224;-73
2023/06/23 13:21:19;;;;;;;4.10;3.80;;;;;;;;;;5050309;28;20206;-73
2023/06/23 13:23:45;;;;;;;3.90;3.60;;;;;;;;;;5050152;28;20189;-73
2023/06/23 13:26:12;;;;;;;5.20;3.63;;;;;;;;;;5051299;28;20574;-73
2023/06/23 13:28:38;;;;;;;4.27;3.50;;;;;;;;;;5050426;28;20242;-73
2023/06/23 13:31:04;;;;;;;4.20;3.80;;;;;;;;;;5051083;28;20200;-73
2023/06/23 13:33:30;;;;;;;4.10;3.80;;;;;;;;;;5050819;28;20242;-73
2023/06/23 13:35:57;;;;;;;4.60;3.57;;;;;;;;;;5051126;28;20313;-73
2023/06/23 13:38:23;;;;;;;4.30;3.90;;;;;;;;;;5049550;28;20301;-73
2023/06/23 13:40:49;;;;;;;3.97;3.57;;;;;;;;;;5050944;28;20169;-73
2023/06/23 13:43:15;;;;;;;4.00;3.70;;;;;;;;;;5049737;28;20302;-73
2023/06/23 13:45:41;;;;;;;4.47;3.50;;;;;;;;;;5050888;28;20179;-73
2023/06/23 13:48:07;;;;;;;3.90;3.60;;;;;;;;;;5050675;28;20632;-73
2023/06/23 13:50:34;;;;;;;4.87;3.90;;;;;;;;;;5050780;28;20177;-73
2023/06/23 13:53:00;;;;;;;5.17;3.67;;;;;;;;;;5050559;28;20227;-73
2023/06/23 13:55:26;;;;;;;3.77;3.40;;;;;;;;;;5049989;28;20202;-73
2023/06/23 13:57:52;;;;;;;3.70;3.40;;;;;;;;;;5049337;28;20668;-73
2023/06/23 14:00:19;;;;;;;4.10;3.37;;;;;;;;;;5050902;28;20691;-73
2023/06/23 14:02:45;;;;;;;4.97;3.30;;;;;;;;;;5047810;28;20690;-74
2023/06/23 14:05:13;;;;;;;3.70;3.40;;;;;;;;;;5043632;28;20181;-74
2023/06/23 14:07:40;;;;;;;4.40;4.00;;;;;;;;;;5050275;28;20266;-74
2023/06/23 14:10:07;;;;;;;3.60;3.30;;;;;;;;;;5050743;28;20178;-74
2023/06/23 14:12:33;;;;;;;3.53;3.23;;;;;;;;;;5036669;28;20552;-74
2023/06/23 14:14:59;;;;;;;5.60;3.03;;;;;;;;;;5030883;28;20274;-74
2023/06/23 14:17:26;;;;;;;3.60;3.30;;;;;;;;;;5029731;28;20666;-74
2023/06/23 14:19:52;;;;;;;3.40;3.10;;;;;;;;;;5030612;28;21214;-74
2023/06/23 14:22:18;;;;;;;4.57;3.60;;;;;;;;;;5030553;28;20718;-74
2023/06/23 14:24:44;;;;;;;3.53;3.23;;;;;;;;;;5030818;28;20196;-74
2023/06/23 14:27:10;;;;;;;3.87;3.50;;;;;;;;;;5030761;28;20222;-73
2023/06/23 14:29:36;;;;;;;4.73;3.47;;;;;;;;;;5030532;28;20663;-73
2023/06/23 14:32:03;;;;;;;4.53;3.40;;;;;;;;;;5032505;28;20180;-73
2023/06/23 14:34:29;;;;;;;4.13;3.30;;;;;;;;;;5033021;28;20195;-73
2023/06/23 14:36:55;;;;;;;3.57;3.27;;;;;;;;;;5034167;28;20196;-73
2023/06/23 14:39:22;;;;;;;3.27;3.07;;;;;;;;;;5034036;28;20705;-73
2023/06/23 14:41:48;;;;;;;4.43;3.27;;;;;;;;;;5034130;28;20209;-73
2023/06/23 14:44:14;;;;;;;3.20;3.00;;;;;;;;;;5033944;28;20198;-73
2023/06/23 14:46:40;;;;;;;3.20;3.00;;;;;;;;;;5034161;28;20179;-73
2023/06/23 14:49:06;;;;;;;3.20;2.90;;;;;;;;;;5033787;28;20176;-73